Fort Lauderdale, Florida
Current Conditions -  °F | °C
As of 11:53 PM on Sunday 21 Dec 2014 (Local Time) from KFLL Reporting Station
Broken Clouds Broken Clouds  
Wind Chill: 73°   Ceiling: 12000
Heat Index: 73°   Visibility: 10mi
Dew Point: 65°   Wind: 5mph
Humidity: 76%   Direction: 160°SSE
Pressure: 30.04"   Gusts: NA
Location:  26.12°N, 80.15°W
Report Text: KFLL 220453Z 16004KT 10SM SCT030 BKN120 BKN250 23/18 A3004 RMK AO2 SLP173 T02280183 402610183
Loading
Personal Weather Stations






























Interactive Weather Map New forecast layout! Learn more

10-Day Weather Forecast

Advertisements
Track Severe Weather on mobile